createdAt,value
2022-11-25T00:00:06.452Z,22.52
2022-11-25T00:02:45.570Z,19.20
2022-11-25T00:05:13.609Z,20.23
2022-11-25T00:07:41.553Z,19.73
2022-11-25T00:10:09.846Z,21.75
2022-11-25T00:12:37.827Z,21.90
2022-11-25T00:15:06.585Z,19.73
2022-11-25T00:17:34.455Z,19.60
2022-11-25T00:20:06.045Z,19.98
2022-11-25T00:22:33.915Z,20.45
2022-11-25T00:25:01.855Z,22.20
2022-11-25T00:27:29.725Z,19.30
2022-11-25T00:30:00.718Z,19.08
2022-11-25T00:32:28.596Z,19.80
2022-11-25T00:34:56.469Z,20.45
2022-11-25T00:37:25.673Z,19.40
2022-11-25T00:39:53.538Z,21.48
2022-11-25T00:42:38.894Z,19.45
2022-11-25T00:45:08.199Z,19.55
2022-11-25T00:47:36.059Z,20.65
2022-11-25T00:50:04.300Z,22.05
2022-11-25T00:52:36.876Z,19.75
2022-11-25T00:55:05.339Z,20.85
2022-11-25T00:57:35.789Z,21.17
2022-11-25T01:00:03.854Z,20.80
2022-11-25T01:02:31.806Z,18.15
2022-11-25T01:04:59.684Z,19.65
2022-11-25T01:07:27.993Z,20.05
2022-11-25T01:09:58.045Z,22.48
2022-11-25T01:12:26.229Z,18.92
2022-11-25T01:14:54.177Z,24.13
2022-11-25T01:17:21.996Z,20.02
2022-11-25T01:19:49.891Z,20.02
2022-11-25T01:22:21.155Z,22.95
2022-11-25T01:24:49.050Z,19.73
2022-11-25T01:27:18.247Z,21.08
2022-11-25T01:29:46.090Z,23.83
2022-11-25T01:32:14.552Z,20.25
2022-11-25T01:34:42.413Z,20.98
2022-11-25T01:37:10.297Z,21.83
2022-11-25T01:39:39.767Z,21.58
2022-11-25T01:42:07.674Z,20.30
2022-11-25T01:44:37.989Z,21.20
2022-11-25T01:47:08.044Z,22.75
2022-11-25T01:49:38.085Z,20.17
2022-11-25T01:52:10.326Z,20.02
2022-11-25T01:54:39.347Z,21.40
2022-11-25T01:57:09.154Z,20.65
2022-11-25T01:59:42.930Z,20.55
2022-11-25T02:02:10.915Z,21.05
2022-11-25T02:04:39.385Z,21.60
2022-11-25T02:07:10.779Z,22.23
2022-11-25T02:09:39.427Z,22.73
2022-11-25T02:12:07.651Z,23.85
2022-11-25T02:14:35.926Z,18.77
2022-11-25T02:17:05.379Z,21.02
2022-11-25T02:19:42.305Z,21.48
2022-11-25T02:22:12.766Z,20.60
2022-11-25T02:24:42.637Z,21.20
2022-11-25T02:27:11.921Z,21.30
2022-11-25T02:29:40.203Z,21.38
2022-11-25T02:32:08.450Z,20.35
2022-11-25T02:34:36.584Z,21.20
2022-11-25T02:37:04.683Z,21.80
2022-11-25T02:39:33.575Z,22.27
2022-11-25T02:42:01.560Z,22.48
2022-11-25T02:44:31.160Z,20.95
2022-11-25T02:46:59.036Z,19.27
2022-11-25T02:49:27.350Z,19.75
2022-11-25T02:51:55.246Z,20.60
2022-11-25T02:54:23.156Z,22.20
2022-11-25T02:56:51.068Z,21.52
2022-11-25T02:59:18.981Z,21.92
2022-11-25T03:01:49.235Z,21.67
2022-11-25T03:04:17.148Z,21.88
2022-11-25T03:06:45.672Z,19.70
2022-11-25T03:09:13.534Z,23.70
2022-11-25T03:11:58.733Z,23.65
2022-11-25T03:14:26.671Z,20.98
2022-11-25T03:16:56.029Z,22.40
2022-11-25T03:19:26.604Z,21.20
2022-11-25T03:21:54.455Z,19.33
2022-11-25T03:24:22.329Z,22.17
2022-11-25T03:26:50.877Z,19.90
2022-11-25T03:29:19.065Z,23.15
2022-11-25T03:31:47.034Z,20.50
2022-11-25T03:34:16.332Z,23.40
2022-11-25T03:36:44.410Z,21.20
2022-11-25T03:39:12.512Z,22.42
2022-11-25T03:41:40.449Z,21.85
2022-11-25T03:44:08.377Z,20.75
2022-11-25T03:46:37.080Z,20.73
2022-11-25T03:49:07.546Z,22.17
2022-11-25T03:51:37.152Z,23.08
2022-11-25T03:54:06.035Z,23.55
2022-11-25T03:56:53.880Z,23.63
2022-11-25T03:59:21.873Z,22.60
2022-11-25T04:01:51.619Z,23.10
2022-11-25T04:04:19.669Z,23.17
2022-11-25T04:06:48.883Z,25.15
2022-11-25T04:09:16.864Z,21.08
2022-11-25T04:12:02.426Z,22.50
2022-11-25T04:14:39.352Z,23.42
2022-11-25T04:17:07.444Z,24.48
2022-11-25T04:19:37.754Z,23.88
2022-11-25T04:22:07.057Z,23.40
2022-11-25T04:24:38.851Z,24.63
2022-11-25T04:27:07.332Z,22.20
2022-11-25T04:29:35.337Z,25.02
2022-11-25T04:32:05.873Z,23.17
2022-11-25T04:34:34.170Z,22.73
2022-11-25T04:37:02.511Z,22.33
2022-11-25T04:39:32.134Z,23.67
2022-11-25T04:42:23.143Z,23.02
2022-11-25T04:45:07.606Z,24.67
2022-11-25T04:47:39.039Z,23.30
2022-11-25T04:50:09.758Z,21.75
2022-11-25T04:52:48.341Z,23.33
2022-11-25T04:55:17.776Z,24.77
2022-11-25T04:57:46.417Z,24.77
2022-11-25T05:00:15.664Z,21.67
2022-11-25T05:02:43.754Z,21.33
2022-11-25T05:05:18.872Z,23.38
2022-11-25T05:07:46.799Z,24.73
2022-11-25T05:10:17.339Z,30.15
2022-11-25T05:12:48.667Z,21.67
2022-11-25T05:15:19.407Z,25.40
2022-11-25T05:17:48.796Z,24.45
2022-11-25T05:20:20.949Z,23.55
2022-11-25T05:22:49.310Z,24.65
2022-11-25T05:25:24.570Z,24.55
2022-11-25T05:28:06.230Z,25.48
2022-11-25T05:30:34.170Z,25.83
2022-11-25T05:33:02.164Z,24.88
2022-11-25T05:35:30.148Z,23.63
2022-11-25T05:37:59.841Z,26.27
2022-11-25T05:40:29.136Z,25.33
2022-11-25T05:43:07.736Z,24.02
2022-11-25T05:45:39.638Z,23.48
2022-11-25T05:48:09.680Z,25.30
2022-11-25T05:50:38.161Z,25.35
2022-11-25T05:53:17.301Z,24.30
2022-11-25T05:55:54.704Z,24.92
2022-11-25T05:58:31.185Z,22.15
2022-11-25T06:01:00.613Z,23.65
2022-11-25T06:03:29.359Z,25.17
2022-11-25T06:05:57.529Z,22.17
2022-11-25T06:08:25.400Z,24.65
2022-11-25T06:10:54.737Z,23.70
2022-11-25T06:13:22.715Z,23.88
2022-11-25T06:15:50.718Z,24.67
2022-11-25T06:18:19.751Z,23.80
2022-11-25T06:20:57.137Z,27.75
2022-11-25T06:23:25.168Z,24.42
2022-11-25T06:25:54.491Z,24.52
2022-11-25T06:28:25.302Z,25.33
2022-11-25T06:30:53.654Z,24.15
2022-11-25T06:33:28.937Z,27.05
2022-11-25T06:35:59.001Z,32.35
2022-11-25T06:38:26.917Z,32.13
2022-11-25T06:41:00.495Z,36.88
2022-11-25T06:43:28.503Z,46.42
2022-11-25T06:45:56.460Z,42.22
2022-11-25T06:48:24.397Z,41.90
2022-11-25T06:50:59.049Z,34.65
2022-11-25T06:53:27.062Z,52.83
2022-11-25T06:56:10.489Z,49.63
2022-11-25T06:58:38.597Z,59.63
2022-11-25T07:01:07.727Z,60.65
2022-11-25T07:03:35.976Z,45.83
2022-11-25T07:06:03.919Z,56.30
2022-11-25T07:08:34.134Z,47.22
2022-11-25T07:11:06.050Z,46.45
2022-11-25T07:13:35.291Z,51.97
2022-11-25T07:16:03.944Z,45.00
2022-11-25T07:18:32.898Z,50.60
2022-11-25T07:21:08.280Z,47.30
2022-11-25T07:23:36.354Z,49.70
2022-11-25T07:26:05.364Z,39.80
2022-11-25T07:28:33.227Z,52.08
2022-11-25T07:31:29.125Z,39.22
2022-11-25T07:33:58.596Z,33.90
2022-11-25T07:36:26.877Z,40.47
2022-11-25T07:38:54.893Z,37.60
2022-11-25T07:41:23.799Z,38.53
2022-11-25T07:43:53.556Z,34.72
2022-11-25T07:46:27.292Z,36.03
2022-11-25T07:48:55.936Z,33.33
2022-11-25T07:51:24.849Z,35.50
2022-11-25T07:53:52.947Z,34.83
2022-11-25T07:56:21.635Z,30.52
2022-11-25T07:58:49.581Z,31.48
2022-11-25T08:01:18.565Z,33.97
2022-11-25T08:03:48.554Z,28.80
2022-11-25T08:06:17.551Z,32.58
2022-11-25T08:08:45.685Z,34.15
2022-11-25T08:11:14.533Z,29.35
2022-11-25T08:13:42.585Z,33.65
2022-11-25T08:16:11.558Z,32.33
2022-11-25T08:18:39.559Z,28.08
2022-11-25T08:21:10.166Z,29.10
2022-11-25T08:23:39.899Z,32.20
2022-11-25T08:26:08.619Z,29.67
2022-11-25T08:28:36.794Z,27.80
2022-11-25T08:31:05.357Z,30.33
2022-11-25T08:33:33.368Z,27.45
2022-11-25T08:36:01.406Z,30.33
2022-11-25T08:38:30.693Z,28.05
2022-11-25T08:40:59.192Z,39.10
2022-11-25T08:43:29.530Z,50.50
2022-11-25T08:45:57.515Z,51.72
2022-11-25T08:48:25.416Z,48.38
2022-11-25T08:50:54.746Z,54.50
2022-11-25T08:53:22.647Z,46.70
2022-11-25T08:55:51.873Z,42.92
2022-11-25T08:58:19.939Z,48.08
2022-11-25T09:00:47.822Z,53.20
2022-11-25T09:03:15.787Z,50.67
2022-11-25T09:05:43.786Z,73.53
2022-11-25T09:08:12.044Z,60.42
2022-11-25T09:10:40.657Z,57.78
2022-11-25T09:13:11.612Z,59.00
2022-11-25T09:15:39.905Z,58.47
2022-11-25T09:18:09.061Z,59.53
2022-11-25T09:20:38.852Z,53.92
2022-11-25T09:23:07.578Z,62.63
2022-11-25T09:25:35.898Z,47.17
2022-11-25T09:28:03.960Z,58.42
2022-11-25T09:30:33.229Z,58.60
2022-11-25T09:33:01.096Z,52.22
2022-11-25T09:35:28.991Z,52.50
2022-11-25T09:37:56.906Z,49.80
2022-11-25T09:40:31.133Z,51.80
2022-11-25T09:43:18.711Z,45.65
2022-11-25T09:46:09.072Z,47.30
2022-11-25T09:48:56.909Z,45.22
2022-11-25T09:51:26.809Z,43.63
2022-11-25T09:53:55.272Z,44.53
2022-11-25T09:56:40.994Z,48.58
2022-11-25T09:59:11.715Z,40.85
2022-11-25T10:01:48.679Z,45.72
2022-11-25T10:04:18.928Z,40.08
2022-11-25T10:06:53.564Z,44.78
2022-11-25T10:09:25.102Z,44.95
2022-11-25T10:11:54.401Z,40.75
2022-11-25T10:14:27.676Z,36.45
2022-11-25T10:16:59.457Z,36.05
2022-11-25T10:19:38.132Z,35.83
2022-11-25T10:22:16.366Z,39.75
2022-11-25T10:24:44.521Z,34.15
2022-11-25T10:27:18.679Z,36.40
2022-11-25T10:29:47.115Z,36.58
2022-11-25T10:32:21.543Z,33.38
2022-11-25T10:34:50.920Z,33.83
2022-11-25T10:37:27.571Z,36.50
2022-11-25T10:39:55.418Z,31.40
2022-11-25T10:42:24.222Z,31.88
2022-11-25T10:44:52.166Z,31.90
2022-11-25T10:47:36.139Z,32.00
2022-11-25T10:50:16.353Z,32.08
2022-11-25T10:52:48.041Z,30.85
2022-11-25T10:55:17.011Z,30.23
2022-11-25T10:57:44.927Z,28.85
2022-11-25T11:00:26.698Z,29.30
2022-11-25T11:02:56.002Z,33.40
2022-11-25T11:05:24.716Z,29.90
2022-11-25T11:08:10.052Z,30.83
2022-11-25T11:10:38.516Z,30.02
2022-11-25T11:13:07.143Z,25.98
2022-11-25T11:15:45.955Z,30.15
2022-11-25T11:18:24.002Z,29.30
2022-11-25T11:20:52.507Z,28.60
2022-11-25T11:23:20.482Z,27.80
2022-11-25T11:25:57.257Z,24.85
2022-11-25T11:28:26.763Z,24.55
2022-11-25T11:30:56.362Z,31.48
2022-11-25T11:33:35.594Z,25.73
2022-11-25T11:36:13.794Z,26.75
2022-11-25T11:38:45.235Z,24.40
2022-11-25T11:41:16.117Z,26.80
2022-11-25T11:43:51.674Z,25.77
2022-11-25T11:46:28.265Z,25.45
2022-11-25T11:49:03.647Z,26.02
2022-11-25T11:51:34.367Z,27.08
2022-11-25T11:54:06.191Z,29.27
2022-11-25T11:56:38.148Z,26.63
2022-11-25T11:59:16.141Z,24.73
2022-11-25T12:01:49.690Z,25.25
2022-11-25T12:04:22.126Z,25.67
2022-11-25T12:06:57.654Z,26.15
2022-11-25T12:09:25.648Z,25.55
2022-11-25T12:11:54.961Z,27.98
2022-11-25T12:14:31.210Z,27.27
2022-11-25T12:17:00.130Z,26.08
2022-11-25T12:19:34.342Z,26.17
2022-11-25T12:22:04.374Z,24.27
2022-11-25T12:24:34.714Z,26.77
2022-11-25T12:27:03.936Z,21.48
2022-11-25T12:29:35.305Z,25.63
2022-11-25T12:32:18.793Z,26.23
2022-11-25T12:34:51.350Z,24.50
2022-11-25T12:37:22.362Z,26.60
2022-11-25T12:39:54.181Z,25.75
2022-11-25T12:42:23.622Z,23.98
2022-11-25T12:44:56.211Z,27.23
2022-11-25T12:47:24.114Z,22.92
2022-11-25T12:49:53.915Z,26.00
2022-11-25T12:52:32.353Z,23.30
2022-11-25T12:55:16.494Z,26.20
2022-11-25T12:58:10.429Z,24.95
2022-11-25T13:00:47.629Z,23.85
2022-11-25T13:03:52.372Z,26.17
2022-11-25T13:06:38.587Z,25.52
2022-11-25T13:09:12.650Z,23.20
2022-11-25T13:12:01.195Z,25.63
2022-11-25T13:14:31.749Z,23.20
2022-11-25T13:17:00.358Z,23.63
2022-11-25T13:19:28.795Z,22.10
2022-11-25T13:22:02.624Z,21.15
2022-11-25T13:24:33.857Z,23.00
2022-11-25T13:27:02.403Z,25.10
2022-11-25T13:30:03.676Z,24.52
2022-11-25T13:32:36.014Z,22.98
2022-11-25T13:35:38.425Z,23.67
2022-11-25T13:38:40.633Z,24.23
2022-11-25T13:41:25.733Z,22.33
2022-11-25T13:44:01.638Z,24.15
2022-11-25T13:46:38.328Z,22.50
2022-11-25T13:49:06.499Z,22.98
2022-11-25T13:51:34.361Z,23.70
2022-11-25T13:54:05.783Z,21.92
2022-11-25T13:56:35.168Z,21.13
2022-11-25T13:59:35.399Z,23.83
2022-11-25T14:02:32.940Z,23.25
2022-11-25T14:05:05.334Z,25.48
2022-11-25T14:07:37.608Z,23.15
2022-11-25T14:10:17.268Z,21.95
2022-11-25T14:13:02.297Z,23.27
2022-11-25T14:15:34.164Z,22.95
2022-11-25T14:19:12.073Z,24.23
2022-11-25T14:21:28.026Z,21.13
2022-11-25T14:24:03.798Z,22.48
2022-11-25T14:26:49.304Z,22.92
2022-11-25T14:29:20.611Z,22.45
2022-11-25T14:31:51.235Z,21.10
2022-11-25T14:34:21.309Z,22.15
2022-11-25T14:36:51.417Z,20.63
2022-11-25T14:39:22.682Z,22.95
2022-11-25T14:41:56.025Z,22.67
2022-11-25T14:44:25.098Z,24.13
2022-11-25T14:46:53.677Z,21.17
2022-11-25T14:49:45.203Z,23.30
2022-11-25T14:52:11.121Z,21.95
2022-11-25T14:54:42.081Z,22.75
2022-11-25T14:57:11.362Z,22.88
2022-11-25T14:59:44.915Z,22.13
2022-11-25T15:02:24.427Z,21.05
2022-11-25T15:04:52.469Z,24.63
2022-11-25T15:07:27.781Z,22.23
2022-11-25T15:09:58.717Z,21.77
2022-11-25T15:12:29.995Z,22.67
2022-11-25T15:14:57.899Z,21.73
2022-11-25T15:17:27.655Z,23.40
2022-11-25T15:19:55.664Z,22.77
2022-11-25T15:22:24.645Z,20.85
2022-11-25T15:24:55.983Z,22.83
2022-11-25T15:27:27.068Z,20.25
2022-11-25T15:29:55.819Z,24.42
2022-11-25T15:32:25.345Z,23.15
2022-11-25T15:34:53.580Z,22.35
2022-11-25T15:37:21.563Z,24.83
2022-11-25T15:39:49.440Z,20.95
2022-11-25T15:42:18.588Z,21.65
2022-11-25T15:44:49.636Z,19.98
2022-11-25T15:47:20.612Z,24.63
2022-11-25T15:49:49.296Z,22.17
2022-11-25T15:52:18.348Z,20.98
2022-11-25T15:54:47.370Z,22.20
2022-11-25T15:57:17.376Z,24.02
2022-11-25T15:59:51.231Z,27.50
2022-11-25T16:02:39.465Z,24.30
2022-11-25T16:05:42.296Z,24.52
2022-11-25T16:08:35.045Z,24.88
2022-11-25T16:11:15.315Z,23.35
2022-11-25T16:13:43.219Z,28.88
2022-11-25T16:16:17.915Z,29.17
2022-11-25T16:19:06.213Z,22.15
2022-11-25T16:21:45.566Z,22.77
2022-11-25T16:24:20.374Z,24.20
2022-11-25T16:26:51.069Z,22.25
2022-11-25T16:29:20.176Z,26.23
2022-11-25T16:31:49.546Z,21.75
2022-11-25T16:34:18.416Z,21.10
2022-11-25T16:36:46.442Z,25.20
2022-11-25T16:39:14.502Z,23.63
2022-11-25T16:41:42.691Z,23.15
2022-11-25T16:44:15.209Z,24.90
2022-11-25T16:46:43.064Z,24.00
2022-11-25T16:49:14.164Z,24.75
2022-11-25T16:51:42.314Z,23.38
2022-11-25T16:54:10.164Z,26.42
2022-11-25T16:56:39.091Z,23.95
2022-11-25T16:59:07.084Z,23.98
2022-11-25T17:01:35.080Z,22.05
2022-11-25T17:04:03.075Z,27.90
2022-11-25T17:06:32.303Z,23.60
2022-11-25T17:09:00.193Z,25.02
2022-11-25T17:11:29.402Z,23.70
2022-11-25T17:13:57.926Z,24.48
2022-11-25T17:16:27.046Z,25.33
2022-11-25T17:18:55.601Z,24.27
2022-11-25T17:21:26.924Z,24.55
2022-11-25T17:23:56.765Z,23.50
2022-11-25T17:26:26.790Z,24.00
2022-11-25T17:28:56.793Z,24.10
2022-11-25T17:31:26.134Z,23.80
2022-11-25T17:33:54.105Z,24.02
2022-11-25T17:36:22.194Z,23.48
2022-11-25T17:38:50.129Z,26.08
2022-11-25T17:41:19.997Z,24.63
2022-11-25T17:43:48.774Z,25.83
2022-11-25T17:46:17.370Z,29.05
2022-11-25T17:48:45.355Z,24.38
2022-11-25T17:51:13.800Z,24.33
2022-11-25T17:53:41.853Z,24.77
2022-11-25T17:56:17.837Z,25.40
2022-11-25T17:58:47.230Z,26.70
2022-11-25T18:01:15.167Z,25.38
2022-11-25T18:03:43.071Z,24.65
2022-11-25T18:06:11.253Z,24.98
2022-11-25T18:08:39.188Z,25.70
2022-11-25T18:11:07.286Z,23.98
2022-11-25T18:13:37.476Z,27.63
2022-11-25T18:16:07.151Z,26.30
2022-11-25T18:18:35.290Z,28.80
2022-11-25T18:21:03.178Z,25.55
2022-11-25T18:23:31.031Z,27.88
2022-11-25T18:25:59.058Z,29.50
2022-11-25T18:28:27.137Z,26.48
2022-11-25T18:30:55.796Z,29.08
2022-11-25T18:33:25.194Z,26.95
2022-11-25T18:35:53.082Z,29.80
2022-11-25T18:38:21.026Z,24.63
2022-11-25T18:40:53.212Z,25.55
2022-11-25T18:43:24.741Z,28.60
2022-11-25T18:45:53.322Z,26.08
2022-11-25T18:48:22.853Z,24.92
2022-11-25T18:50:53.139Z,26.48
2022-11-25T18:53:21.088Z,28.45
2022-11-25T18:55:49.415Z,23.77
2022-11-25T18:58:18.648Z,29.55
2022-11-25T19:00:48.532Z,26.45
2022-11-25T19:03:19.084Z,26.48
2022-11-25T19:05:47.119Z,26.17
2022-11-25T19:08:16.318Z,30.33
2022-11-25T19:10:45.013Z,26.92
2022-11-25T19:13:15.071Z,27.80
2022-11-25T19:15:43.898Z,28.83
2022-11-25T19:18:16.781Z,28.27
2022-11-25T19:20:44.638Z,26.60
2022-11-25T19:23:17.204Z,25.50
2022-11-25T19:25:45.704Z,26.80
2022-11-25T19:28:14.256Z,26.98
2022-11-25T19:30:42.142Z,26.67
2022-11-25T19:33:10.619Z,29.17
2022-11-25T19:35:38.628Z,27.15
2022-11-25T19:38:08.721Z,27.33
2022-11-25T19:40:40.392Z,28.67
2022-11-25T19:43:09.057Z,30.70
2022-11-25T19:45:38.450Z,27.50
2022-11-25T19:48:07.775Z,29.90
2022-11-25T19:50:36.132Z,29.92
2022-11-25T19:53:04.009Z,28.65
2022-11-25T19:55:32.489Z,25.80
2022-11-25T19:58:02.028Z,28.60
2022-11-25T20:00:29.933Z,26.77
2022-11-25T20:02:58.035Z,29.67
2022-11-25T20:05:28.005Z,28.50
2022-11-25T20:07:55.976Z,29.25
2022-11-25T20:10:25.662Z,28.90
2022-11-25T20:12:53.930Z,25.77
2022-11-25T20:15:23.266Z,25.67
2022-11-25T20:17:52.737Z,27.08
2022-11-25T20:20:23.111Z,33.15
2022-11-25T20:22:56.154Z,33.53
2022-11-25T20:25:24.082Z,32.05
2022-11-25T20:27:52.091Z,27.90
2022-11-25T20:30:21.027Z,25.42
2022-11-25T20:32:50.361Z,29.02
2022-11-25T20:35:18.442Z,27.25
2022-11-25T20:37:54.047Z,29.02
2022-11-25T20:40:24.219Z,29.15
2022-11-25T20:42:52.074Z,31.33
2022-11-25T20:45:20.770Z,30.85
2022-11-25T20:47:50.995Z,29.50
2022-11-25T20:50:19.571Z,28.10
2022-11-25T20:52:47.760Z,31.38
2022-11-25T20:55:17.544Z,31.63
2022-11-25T20:57:45.473Z,33.42
2022-11-25T21:00:18.501Z,35.60
2022-11-25T21:02:46.558Z,31.58
2022-11-25T21:05:16.132Z,38.28
2022-11-25T21:07:44.385Z,31.48
2022-11-25T21:10:23.918Z,33.65
2022-11-25T21:12:51.803Z,31.38
2022-11-25T21:15:22.763Z,30.83
2022-11-25T21:17:50.751Z,33.78
2022-11-25T21:20:20.221Z,28.60
2022-11-25T21:22:49.413Z,32.38
2022-11-25T21:25:19.001Z,34.60
2022-11-25T21:27:47.396Z,32.15
2022-11-25T21:30:19.238Z,31.23
2022-11-25T21:32:47.245Z,28.92
2022-11-25T21:35:15.518Z,26.30
2022-11-25T21:37:44.924Z,28.30
2022-11-25T21:40:25.241Z,29.45
2022-11-25T21:42:53.137Z,32.30
2022-11-25T21:45:21.119Z,31.25
2022-11-25T21:47:48.964Z,31.63
2022-11-25T21:50:18.138Z,32.15
2022-11-25T21:52:47.520Z,29.13
2022-11-25T21:55:16.019Z,31.23
2022-11-25T21:57:43.904Z,30.92
2022-11-25T22:00:20.933Z,31.08
2022-11-25T22:02:49.155Z,30.23
2022-11-25T22:05:18.047Z,30.50
2022-11-25T22:07:47.528Z,31.40
2022-11-25T22:10:16.452Z,30.45
2022-11-25T22:12:45.347Z,30.88
2022-11-25T22:15:15.417Z,29.38
2022-11-25T22:17:43.553Z,28.38
2022-11-25T22:20:25.900Z,32.58
2022-11-25T22:22:55.251Z,29.65
2022-11-25T22:25:23.575Z,39.72
2022-11-25T22:27:51.504Z,39.22
2022-11-25T22:30:20.408Z,34.15
2022-11-25T22:32:48.878Z,36.92
2022-11-25T22:35:17.769Z,34.47
2022-11-25T22:37:49.345Z,35.90
2022-11-25T22:40:21.307Z,33.65
2022-11-25T22:42:50.301Z,37.63
2022-11-25T22:45:21.742Z,35.72
2022-11-25T22:47:49.813Z,33.58
2022-11-25T22:50:21.739Z,33.05
2022-11-25T22:52:49.770Z,36.40
2022-11-25T22:55:21.520Z,33.13
2022-11-25T22:57:49.571Z,38.58
2022-11-25T23:00:19.474Z,35.67
2022-11-25T23:02:47.457Z,34.30
2022-11-25T23:05:16.615Z,35.25
2022-11-25T23:07:44.604Z,41.13
2022-11-25T23:10:16.772Z,36.58
2022-11-25T23:12:46.060Z,32.40
2022-11-25T23:15:15.335Z,36.83
2022-11-25T23:17:45.725Z,35.60
2022-11-25T23:20:18.946Z,34.08
2022-11-25T23:22:46.864Z,31.55
2022-11-25T23:25:15.661Z,31.83
2022-11-25T23:27:43.570Z,39.70
2022-11-25T23:30:16.338Z,36.95
2022-11-25T23:32:44.493Z,31.35
2022-11-25T23:35:17.035Z,34.35
2022-11-25T23:37:45.004Z,32.28
2022-11-25T23:40:20.374Z,33.53
2022-11-25T23:42:48.430Z,32.58
2022-11-25T23:45:19.006Z,32.38
2022-11-25T23:47:48.050Z,38.65
2022-11-25T23:50:19.184Z,37.00
2022-11-25T23:52:47.113Z,34.25
2022-11-25T23:55:16.242Z,32.00
2022-11-25T23:57:48.049Z,33.90
